Time,TemperatureF,DewpointF,PressureIn,WindDirection,WindDirectionDegrees,WindSpeedMPH,WindSpeedGustMPH,Humidity,HourlyPrecipIn,Conditions,Clouds,dailyrainin,SoftwareType,DateUTC
2013-04-02 00:03:00,56.7,35.0,29.95,SW,223,1.0,10.0,45,0.00,,,0.00,weatherlink.com 1.10,2013-04-02 04:03:00,
2013-04-02 00:18:00,56.6,34.0,29.95,NNW,331,8.0,13.0,43,0.00,,,0.00,weatherlink.com 1.10,2013-04-02 04:18:00,
2013-04-02 00:33:00,56.8,33.0,29.95,North,11,8.0,14.0,40,0.00,,,0.00,weatherlink.com 1.10,2013-04-02 04:33:00,
2013-04-02 00:48:00,57.0,31.0,29.96,WNW,302,8.0,19.0,38,0.00,,,0.00,weatherlink.com 1.10,2013-04-02 04:48:00,
2013-04-02 01:03:00,56.9,31.0,29.96,WNW,293,7.0,18.0,38,0.00,,,0.00,weatherlink.com 1.10,2013-04-02 05:03:00,
2013-04-02 01:18:00,56.0,31.0,29.96,West,267,7.0,12.0,39,0.00,,,0.00,weatherlink.com 1.10,2013-04-02 05:18:00,
2013-04-02 01:33:00,55.3,32.0,29.97,WNW,298,5.0,7.0,41,0.00,,,0.00,weatherlink.com 1.10,2013-04-02 05:33:00,
2013-04-02 01:48:00,54.5,32.0,29.97,West,278,2.0,7.0,42,0.00,,,0.00,weatherlink.com 1.10,2013-04-02 05:48:00,
2013-04-02 02:03:00,54.2,31.0,29.98,West,261,2.0,5.0,41,0.00,,,0.00,weatherlink.com 1.10,2013-04-02 06:03:00,
2013-04-02 02:18:00,53.7,31.0,29.98,WNW,300,3.0,5.0,42,0.00,,,0.00,weatherlink.com 1.10,2013-04-02 06:18:00,
2013-04-02 02:33:00,53.1,31.0,29.98,WNW,284,2.0,6.0,43,0.00,,,0.00,weatherlink.com 1.10,2013-04-02 06:33:00,
2013-04-02 02:48:00,52.7,31.0,29.98,NW,315,1.0,5.0,44,0.00,,,0.00,weatherlink.com 1.10,2013-04-02 06:48:00,
2013-04-02 03:03:00,51.9,30.0,29.98,NNW,334,4.0,8.0,44,0.00,,,0.00,weatherlink.com 1.10,2013-04-02 07:03:00,
2013-04-02 03:18:00,51.9,30.0,29.98,NW,306,4.0,6.0,44,0.00,,,0.00,weatherlink.com 1.10,2013-04-02 07:18:00,
2013-04-02 03:35:00,52.1,31.0,29.98,West,265,2.0,6.0,44,0.00,,,0.00,weatherlink.com 1.10,2013-04-02 07:35:00,
2013-04-02 03:48:00,51.7,30.0,29.99,WNW,294,1.0,4.0,44,0.00,,,0.00,weatherlink.com 1.10,2013-04-02 07:48:00,
2013-04-02 04:03:00,51.0,31.0,30.00,West,275,2.0,4.0,46,0.00,,,0.00,weatherlink.com 1.10,2013-04-02 08:03:00,
2013-04-02 04:18:00,51.3,30.0,30.00,WNW,282,3.0,6.0,44,0.00,,,0.00,weatherlink.com 1.10,2013-04-02 08:18:00,
2013-04-02 04:33:00,51.0,33.0,30.00,ENE,61,3.0,4.0,50,0.00,,,0.00,weatherlink.com 1.10,2013-04-02 08:33:00,
2013-04-02 04:48:00,48.1,31.0,30.01,NNE,20,1.0,3.0,53,0.00,,,0.00,weatherlink.com 1.10,2013-04-02 08:48:00,
2013-04-02 05:03:00,46.5,31.0,30.01,East,85,1.0,2.0,55,0.00,,,0.00,weatherlink.com 1.10,2013-04-02 09:03:00,
2013-04-02 05:19:00,46.0,33.0,30.02,ESE,121,2.0,3.0,60,0.00,,,0.00,weatherlink.com 1.10,2013-04-02 09:19:00,
2013-04-02 05:34:00,45.0,33.0,30.03,NE,44,1.0,3.0,62,0.00,,,0.00,weatherlink.com 1.10,2013-04-02 09:34:00,
2013-04-02 05:49:00,44.8,32.0,30.04,NE,43,1.0,2.0,62,0.00,,,0.00,weatherlink.com 1.10,2013-04-02 09:49:00,
2013-04-02 06:04:00,44.5,32.0,30.05,NE,47,0.0,1.0,62,0.00,,,0.00,weatherlink.com 1.10,2013-04-02 10:04:00,
2013-04-02 06:19:00,44.1,33.0,30.06,NE,47,0.0,1.0,65,0.00,,,0.00,weatherlink.com 1.10,2013-04-02 10:19:00,
2013-04-02 06:34:00,43.3,33.0,30.06,NE,47,0.0,1.0,66,0.00,,,0.00,weatherlink.com 1.10,2013-04-02 10:34:00,
2013-04-02 06:50:00,42.6,33.0,30.07,NE,47,1.0,1.0,69,0.00,,,0.00,weatherlink.com 1.10,2013-04-02 10:50:00,
2013-04-02 07:04:00,41.9,33.0,30.08,NE,50,1.0,2.0,70,0.00,,,0.00,weatherlink.com 1.10,2013-04-02 11:04:00,
2013-04-02 07:19:00,41.1,33.0,30.09,NE,50,0.0,1.0,73,0.00,,,0.00,weatherlink.com 1.10,2013-04-02 11:19:00,
2013-04-02 07:34:00,40.1,33.0,30.10,NE,50,0.0,1.0,77,0.00,,,0.00,weatherlink.com 1.10,2013-04-02 11:34:00,
2013-04-02 07:49:00,39.8,33.0,30.11,NE,50,0.0,1.0,77,0.00,,,0.00,weatherlink.com 1.10,2013-04-02 11:49:00,
2013-04-02 08:05:00,40.4,34.0,30.11,East,101,3.0,3.0,78,0.00,,,0.00,weatherlink.com 1.10,2013-04-02 12:05:00,
2013-04-02 08:19:00,41.5,35.0,30.12,East,84,0.0,4.0,77,0.00,,,0.00,weatherlink.com 1.10,2013-04-02 12:19:00,
2013-04-02 08:34:00,43.5,36.0,30.12,NE,53,0.0,7.0,74,0.00,,,0.00,weatherlink.com 1.10,2013-04-02 12:34:00,
2013-04-02 08:49:00,45.4,34.0,30.13,NE,37,4.0,7.0,65,0.00,,,0.00,weatherlink.com 1.10,2013-04-02 12:49:00,
2013-04-02 09:04:00,46.3,34.0,30.13,East,85,5.0,7.0,62,0.00,,,0.00,weatherlink.com 1.10,2013-04-02 13:04:00,
2013-04-02 09:19:00,47.2,34.0,30.13,North,5,4.0,5.0,60,0.00,,,0.00,weatherlink.com 1.10,2013-04-02 13:19:00,
2013-04-02 09:34:00,48.2,34.0,30.13,NE,36,1.0,9.0,59,0.00,,,0.00,weatherlink.com 1.10,2013-04-02 13:34:00,
2013-04-02 09:49:00,48.7,34.0,30.13,SE,124,0.0,6.0,57,0.00,,,0.00,weatherlink.com 1.10,2013-04-02 13:49:00,
2013-04-02 10:04:00,49.6,33.0,30.13,ENE,64,0.0,5.0,53,0.00,,,0.00,weatherlink.com 1.10,2013-04-02 14:04:00,
2013-04-02 10:19:00,50.3,34.0,30.14,NE,38,3.0,6.0,54,0.00,,,0.00,weatherlink.com 1.10,2013-04-02 14:19:00,
2013-04-02 10:34:00,51.4,33.0,30.13,NNW,335,2.0,6.0,50,0.00,,,0.00,weatherlink.com 1.10,2013-04-02 14:34:00,
2013-04-02 10:49:00,51.8,34.0,30.14,East,92,2.0,7.0,51,0.00,,,0.00,weatherlink.com 1.10,2013-04-02 14:49:00,
2013-04-02 11:04:00,53.5,34.0,30.14,NNW,331,2.0,8.0,47,0.00,,,0.00,weatherlink.com 1.10,2013-04-02 15:04:00,
2013-04-02 11:20:00,54.1,33.0,30.14,South,182,1.0,8.0,45,0.00,,,0.00,weatherlink.com 1.10,2013-04-02 15:20:00,
2013-04-02 11:34:00,54.7,34.0,30.14,WSW,240,3.0,5.0,45,0.00,,,0.00,weatherlink.com 1.10,2013-04-02 15:34:00,
2013-04-02 11:50:00,55.4,35.0,30.13,South,186,0.0,5.0,46,0.00,,,0.00,weatherlink.com 1.10,2013-04-02 15:50:00,
2013-04-02 12:20:00,56.2,34.0,30.12,NNW,337,5.0,10.0,43,0.00,,,0.00,weatherlink.com 1.10,2013-04-02 16:20:00,
2013-04-02 12:35:00,58.0,35.0,30.12,SSW,194,2.0,5.0,42,0.00,,,0.00,weatherlink.com 1.10,2013-04-02 16:35:00,
2013-04-02 12:50:00,58.7,34.0,30.11,SSW,203,3.0,7.0,40,0.00,,,0.00,weatherlink.com 1.10,2013-04-02 16:50:00,
2013-04-02 13:05:00,58.5,34.0,30.11,WSW,257,3.0,8.0,40,0.00,,,0.00,weatherlink.com 1.10,2013-04-02 17:05:00,
2013-04-02 13:20:00,59.4,34.0,30.10,West,268,1.0,12.0,38,0.00,,,0.00,weatherlink.com 1.10,2013-04-02 17:20:00,
2013-04-02 13:35:00,60.4,33.0,30.09,SSW,194,1.0,7.0,36,0.00,,,0.00,weatherlink.com 1.10,2013-04-02 17:35:00,
2013-04-02 13:50:00,60.5,31.0,30.08,NNW,340,3.0,10.0,33,0.00,,,0.00,weatherlink.com 1.10,2013-04-02 17:50:00,
2013-04-02 14:20:00,62.7,20.0,30.06,North,355,8.0,12.0,19,0.00,,,0.00,weatherlink.com 1.10,2013-04-02 18:20:00,
2013-04-02 14:35:00,62.5,17.0,30.06,WNW,293,5.0,14.0,17,0.00,,,0.00,weatherlink.com 1.10,2013-04-02 18:35:00,
2013-04-02 14:50:00,62.5,22.0,30.05,NW,323,3.0,17.0,21,0.00,,,0.00,weatherlink.com 1.10,2013-04-02 18:50:00,
2013-04-02 15:05:00,63.1,21.0,30.04,NNW,330,10.0,12.0,20,0.00,,,0.00,weatherlink.com 1.10,2013-04-02 19:05:00,
2013-04-02 15:20:00,63.4,20.0,30.04,NNW,329,6.0,14.0,19,0.00,,,0.00,weatherlink.com 1.10,2013-04-02 19:20:00,
2013-04-02 15:35:00,64.1,22.0,30.03,NW,316,3.0,11.0,20,0.00,,,0.00,weatherlink.com 1.10,2013-04-02 19:35:00,
2013-04-02 15:50:00,64.1,25.0,30.03,NNW,348,3.0,14.0,23,0.00,,,0.00,weatherlink.com 1.10,2013-04-02 19:50:00,
2013-04-02 16:05:00,63.9,25.0,30.02,NNE,19,8.0,13.0,23,0.00,,,0.00,weatherlink.com 1.10,2013-04-02 20:05:00,
2013-04-02 16:20:00,64.5,27.0,30.02,NW,311,2.0,9.0,24,0.00,,,0.00,weatherlink.com 1.10,2013-04-02 20:20:00,
2013-04-02 16:35:00,65.3,29.0,30.02,SW,223,3.0,9.0,26,0.00,,,0.00,weatherlink.com 1.10,2013-04-02 20:35:00,
2013-04-02 16:50:00,65.6,30.0,30.01,North,355,4.0,8.0,26,0.00,,,0.00,weatherlink.com 1.10,2013-04-02 20:50:00,
2013-04-02 17:05:00,65.2,33.0,30.02,WSW,256,4.0,9.0,30,0.00,,,0.00,weatherlink.com 1.10,2013-04-02 21:05:00,
2013-04-02 17:21:00,65.2,33.0,30.01,WNW,287,3.0,10.0,30,0.00,,,0.00,weatherlink.com 1.10,2013-04-02 21:21:00,
2013-04-02 17:35:00,65.6,31.0,30.01,SSW,212,0.0,5.0,28,0.00,,,0.00,weatherlink.com 1.10,2013-04-02 21:35:00,
2013-04-02 17:50:00,65.6,34.0,30.01,WSW,248,2.0,5.0,31,0.00,,,0.00,weatherlink.com 1.10,2013-04-02 21:50:00,
2013-04-02 18:05:00,65.7,33.0,30.01,WNW,286,2.0,8.0,30,0.00,,,0.00,weatherlink.com 1.10,2013-04-02 22:05:00,
2013-04-02 18:20:00,65.5,31.0,30.01,WNW,288,2.0,6.0,28,0.00,,,0.00,weatherlink.com 1.10,2013-04-02 22:20:00,
2013-04-02 18:50:00,64.3,34.0,30.02,NNW,340,2.0,3.0,33,0.00,,,0.00,weatherlink.com 1.10,2013-04-02 22:50:00,
2013-04-02 19:05:00,64.0,32.0,30.02,NNW,346,2.0,4.0,30,0.00,,,0.00,weatherlink.com 1.10,2013-04-02 23:05:00,
2013-04-02 19:20:00,62.7,32.0,30.02,North,355,0.0,3.0,32,0.00,,,0.00,weatherlink.com 1.10,2013-04-02 23:20:00,
2013-04-02 19:35:00,61.0,34.0,30.02,North,355,1.0,2.0,36,0.00,,,0.00,weatherlink.com 1.10,2013-04-02 23:35:00,
2013-04-02 19:50:00,59.5,34.0,30.02,NE,49,0.0,1.0,38,0.00,,,0.00,weatherlink.com 1.10,2013-04-02 23:50:00,
2013-04-02 20:05:00,58.7,34.0,30.03,NE,49,0.0,1.0,39,0.00,,,0.00,weatherlink.com 1.10,2013-04-03 00:05:00,
2013-04-02 20:20:00,58.1,35.0,30.04,NE,34,6.0,9.0,43,0.00,,,0.00,weatherlink.com 1.10,2013-04-03 00:20:00,
2013-04-02 20:35:00,57.7,35.0,30.04,ENE,65,2.0,6.0,42,0.00,,,0.00,weatherlink.com 1.10,2013-04-03 00:35:00,
2013-04-02 20:50:00,58.0,30.0,30.05,NNE,31,5.0,8.0,35,0.00,,,0.00,weatherlink.com 1.10,2013-04-03 00:50:00,
2013-04-02 21:05:00,57.7,29.0,30.05,NNE,22,4.0,8.0,34,0.00,,,0.00,weatherlink.com 1.10,2013-04-03 01:05:00,
2013-04-02 21:21:00,57.4,27.0,30.06,NE,38,3.0,8.0,31,0.00,,,0.00,weatherlink.com 1.10,2013-04-03 01:21:00,
2013-04-02 21:35:00,57.1,27.0,30.07,NE,44,3.0,7.0,31,0.00,,,0.00,weatherlink.com 1.10,2013-04-03 01:35:00,
2013-04-02 21:50:00,56.6,27.0,30.08,NE,41,4.0,6.0,32,0.00,,,0.00,weatherlink.com 1.10,2013-04-03 01:50:00,
2013-04-02 22:07:00,56.2,25.9,30.08,ENE,73,3.0,4.0,31,0.00,,,0.00,Wunderground v.1.15,2013-04-03 02:07:00,
2013-04-02 22:20:00,56.0,29.0,30.09,ENE,61,1.0,5.0,35,0.00,,,0.00,weatherlink.com 1.10,2013-04-03 02:20:00,
2013-04-02 22:35:00,55.3,25.0,30.09,NNE,15,4.0,11.0,31,0.00,,,0.00,weatherlink.com 1.10,2013-04-03 02:35:00,
2013-04-02 22:50:00,54.9,26.0,30.09,NNE,31,4.0,8.0,33,0.00,,,0.00,weatherlink.com 1.10,2013-04-03 02:50:00,
2013-04-02 23:05:00,54.5,25.0,30.10,ENE,61,5.0,9.0,32,0.00,,,0.00,weatherlink.com 1.10,2013-04-03 03:05:00,
2013-04-02 23:20:00,54.1,26.0,30.09,NNE,33,3.0,8.0,34,0.00,,,0.00,weatherlink.com 1.10,2013-04-03 03:20:00,
2013-04-02 23:35:00,53.6,25.0,30.09,NE,39,3.0,11.0,33,0.00,,,0.00,weatherlink.com 1.10,2013-04-03 03:35:00,
2013-04-02 23:50:00,53.3,25.0,30.10,North,360,5.0,5.0,33,0.00,,,0.00,weatherlink.com 1.10,2013-04-03 03:50:00,